Stations météo

Publicité
East malling, Grande-Bretagne (99008): Température de l'air & dewpoint: 21.10.2020 17:00:00 - 27.10.2020 17:00:00 (GMT)East malling, Grande-Bretagne (99008): Température de l'air -20cm: 21.10.2020 17:00:00 - 27.10.2020 17:00:00 (GMT)East malling, Grande-Bretagne (99008): Vitesse du vent & gusts: 21.10.2020 17:00:00 - 27.10.2020 17:00:00 (GMT)East malling, Grande-Bretagne (99008): Direction du vent: 21.10.2020 17:00:00 - 27.10.2020 17:00:00 (GMT)East malling, Grande-Bretagne (99008): reduced air pressure: 21.10.2020 17:00:00 - 27.10.2020 17:00:00 (GMT)East malling, Grande-Bretagne (99008): Ensoleillement: 21.10.2020 17:00:00 - 27.10.2020 17:00:00 (GMT)East malling, Grande-Bretagne (99008): Quantités de précipitations: 21.10.2020 17:00:00 - 27.10.2020 17:00:00 (GMT)
Date & Time tt [°C] td [°C] tt -20cm [°C] ff [km/h] ff [knt] fx [km/h] fx [knt] dd ppp [hPa] sd [min] rr [mm]
27.10.2020 17:00:00 - - - - - - - - - - -
27.10.2020 16:00:00 13,1 12,7 - 15 8 - - SSW 994,2 0 0,8
27.10.2020 15:00:00 12,4 11,9 - 18 10 - - SSW 994,7 0 0,4
27.10.2020 14:00:00 11,8 11,2 - 21 11 - - S 995,7 0 0,2
27.10.2020 13:00:00 11,6 10,8 - 22 12 - - S 996,7 0 0,2
27.10.2020 12:00:00 11,2 10,3 - 22 12 - - S 998,1 0 0,2
27.10.2020 11:00:00 10,8 10,0 - 18 10 - - SSW 999,2 0 0,4
27.10.2020 10:00:00 9,6 9,2 - 11 6 - - S 1000,2 0 0,2
27.10.2020 09:00:00 8,5 8,4 9,2 8 4 - - S 1000,7 0 0,6
27.10.2020 08:00:00 6,4 6,2 - 2 1 - - NNW 1001,4 0 0,2
27.10.2020 07:00:00 5,6 5,2 - 4 2 - - E 1001,5 0 0,0
27.10.2020 06:00:00 6,1 5,8 - 2 1 - - SE 1001,5 0 0,0
27.10.2020 05:00:00 5,7 5,3 - 4 2 - - SE 1001,9 0 0,0
27.10.2020 04:00:00 6,2 5,8 - 5 3 - - WSW 1001,7 0 0,0
27.10.2020 03:00:00 5,4 4,8 - 2 1 - - WNW 1002,0 0 0,0
27.10.2020 02:00:00 6,1 5,3 - 5 3 - - WSW 1002,1 0 0,0
27.10.2020 01:00:00 6,9 5,9 - 9 5 - - SW 1002,1 0 0,0
27.10.2020 00:00:00 7,3 6,1 - 9 5 - - WSW 1002,3 - 0,0
26.10.2020 23:00:00 7,3 6,0 - 9 5 - - SW 1002,3 0 0,0
26.10.2020 22:00:00 7,6 6,2 - 13 7 - - SW 1002,1 0 0,0
26.10.2020 21:00:00 7,9 6,0 - 9 5 - - SW 1001,7 0 0,0
26.10.2020 20:00:00 8,8 6,3 - 11 6 - - WSW 1001,0 0 0,0
26.10.2020 19:00:00 8,4 6,5 - 8 4 - - WSW 1000,7 0 0,0
26.10.2020 18:00:00 10,1 7,2 - 13 7 - - WSW 1000,0 0 0,0
26.10.2020 17:00:00 10,8 6,9 - 8 4 - - WSW 999,2 0 0,0
26.10.2020 16:00:00 12,3 6,9 - 13 7 - - W 998,6 24 0,0
26.10.2020 15:00:00 13,1 7,7 - 13 7 - - W 998,1 30 0,0
26.10.2020 14:00:00 13,5 8,6 - 13 7 - - W 997,7 24 0,0
26.10.2020 13:00:00 12,5 7,7 - 21 11 - - W 997,6 36 0,0
26.10.2020 12:00:00 13,5 8,5 - 15 8 - - WSW 997,7 24 0,0
26.10.2020 11:00:00 12,4 8,4 - 16 9 - - SW 998,0 54 0,0
26.10.2020 10:00:00 11,1 7,9 - 15 8 - - SW 997,9 60 0,0
26.10.2020 09:00:00 9,3 7,5 9,7 9 5 - - SW 997,8 60 0,0
26.10.2020 08:00:00 7,2 6,9 - 9 5 - - S 997,7 24 0,0
26.10.2020 07:00:00 4,6 3,8 - 2 1 - - NE 997,4 0 0,0
26.10.2020 06:00:00 6,4 5,9 - 9 5 - - S 996,8 0 0,0
26.10.2020 05:00:00 6,6 6,1 - 9 5 - - S 996,8 0 0,0
26.10.2020 04:00:00 6,6 6,1 - 9 5 - - SSW 996,7 0 0,0
26.10.2020 03:00:00 7,1 6,5 - 9 5 - - SSW 996,5 0 0,0
26.10.2020 02:00:00 7,5 6,8 - 9 5 - - SSW 996,7 0 0,4
26.10.2020 01:00:00 8,2 7,5 - 11 6 - - SSW 997,2 0 1,6
26.10.2020 00:00:00 8,5 7,5 - 13 7 - - SSW 997,7 - 0,8
25.10.2020 23:00:00 8,2 7,2 - 11 6 - - S 997,7 0 0,0
25.10.2020 22:00:00 8,8 7,4 - 13 7 - - SSW 997,9 0 0,8
25.10.2020 21:00:00 8,5 6,2 - 5 3 - - SW 997,5 0 0,0
25.10.2020 20:00:00 9,3 7,2 - 13 7 - - SSW 997,6 0 0,0
25.10.2020 19:00:00 9,6 7,5 - 13 7 - - S 997,6 0 0,0
25.10.2020 18:00:00 9,2 7,8 - 8 4 - - S 997,4 0 0,0
25.10.2020 17:00:00 9,6 8,0 - 11 6 - - S 997,1 18 0,0
25.10.2020 16:00:00 10,6 7,8 - 11 6 - - S 997,1 60 0,0
25.10.2020 15:00:00 10,7 7,5 - 13 7 - - SSW 997,2 30 0,0
25.10.2020 14:00:00 10,5 8,3 - 13 7 - - SSW 997,5 12 0,0
25.10.2020 13:00:00 11,1 8,0 - 11 6 - - S 997,4 30 0,2
25.10.2020 12:00:00 9,9 8,6 - 9 5 - - S 998,0 0 2,4
25.10.2020 11:00:00 10,8 8,5 - 13 7 - - SSW 998,1 0 0,0
25.10.2020 10:00:00 9,8 8,1 - 8 4 - - SSW 997,9 0 1,0
25.10.2020 09:00:00 12,6 8,6 11,2 9 5 - - SSW 997,9 24 0,0
25.10.2020 08:00:00 8,3 7,5 - 4 2 - - SW 998,1 0 1,0
25.10.2020 07:00:00 8,6 8,1 - 5 3 - - SW 998,3 0 0,4
25.10.2020 06:00:00 7,4 7,0 - 5 3 - - SSE 997,7 0 0,0
25.10.2020 05:00:00 7,9 7,2 - 5 3 - - S 997,6 0 0,0
25.10.2020 04:00:00 9,1 8,0 - 8 4 - - S 997,3 0 0,0
25.10.2020 03:00:00 10,0 8,3 - 8 4 - - SW 997,1 0 0,0
25.10.2020 02:00:00 11,0 8,3 - 11 6 - - SW 997,2 0 0,0
25.10.2020 01:00:00 12,0 9,8 - 18 10 - - SW 997,0 0 0,0
25.10.2020 00:00:00 - - - - - - - - - - -
24.10.2020 23:00:00 12,2 9,4 - 21 11 - - SW 997,0 0 0,0
24.10.2020 22:00:00 13,0 11,8 - 26 14 59 32 SW 996,3 0 4,8
24.10.2020 21:00:00 13,0 12,3 - 16 9 54 29 SSW 996,0 0 4,8
24.10.2020 20:00:00 13,1 11,9 - 26 14 65 35 SW 996,5 0 5,6
24.10.2020 19:00:00 15,4 13,1 - 29 16 72 39 SSW 997,1 0 0,0
24.10.2020 18:00:00 16,2 13,0 - 31 17 70 38 SSW 997,6 0 0,2
24.10.2020 17:00:00 15,3 13,8 - 28 15 50 27 SSW 998,4 0 0,2
24.10.2020 16:00:00 16,0 12,8 - 29 16 59 32 SSW 999,8 0 0,2
24.10.2020 15:00:00 14,7 13,7 - 22 12 46 25 SSW 1001,0 0 0,4
24.10.2020 14:00:00 15,2 13,0 - 24 13 48 26 SSW 1002,4 0 0,0
24.10.2020 13:00:00 15,1 11,9 - 28 15 46 25 SSW 1003,3 0 0,0
24.10.2020 12:00:00 14,9 11,2 - 26 14 54 29 SSW 1004,3 0 -
24.10.2020 11:00:00 14,8 11,5 - 28 15 46 25 SSW 1004,8 0 0,0
24.10.2020 10:00:00 14,0 11,8 - 24 13 46 25 SSW 1005,3 0 0,0
24.10.2020 09:00:00 13,3 10,4 11,2 18 10 - - S 1005,9 0 0,0
24.10.2020 08:00:00 12,2 10,4 - 18 10 - - S 1006,4 0 0,0
24.10.2020 07:00:00 10,9 9,3 - 13 7 - - S 1006,6 0 0,0
24.10.2020 06:00:00 10,2 9,3 - 9 5 - - S 1007,2 0 0,0
24.10.2020 05:00:00 9,5 8,6 - 5 3 - - S 1008,1 0 0,0
24.10.2020 04:00:00 8,7 7,5 - 8 4 - - S 1008,3 0 0,0
24.10.2020 03:00:00 7,8 7,1 - 2 1 - - S 1009,1 0 0,0
24.10.2020 02:00:00 8,1 7,3 - 4 2 - - S 1009,9 0 0,0
24.10.2020 01:00:00 9,1 8,1 - 9 5 - - SSW 1010,6 0 0,0
24.10.2020 00:00:00 8,3 7,5 - 5 3 - - S 1010,8 - 0,0
23.10.2020 23:00:00 9,4 8,5 - 11 6 - - SSW 1011,1 0 0,0
23.10.2020 22:00:00 9,4 8,0 - 8 4 - - SW 1010,9 0 0,0
23.10.2020 21:00:00 10,5 8,8 - 9 5 - - W 1010,7 0 0,0
23.10.2020 20:00:00 12,1 10,3 - 8 4 - - W 1009,9 0 0,0
23.10.2020 19:00:00 12,5 10,5 - 9 5 - - SW 1009,6 0 0,0
23.10.2020 18:00:00 12,6 9,9 - 9 5 - - SW 1009,1 0 0,0
23.10.2020 17:00:00 13,3 9,8 - 15 8 - - SW 1008,7 0 0,0
23.10.2020 16:00:00 14,1 9,7 - 16 9 - - WSW 1008,1 18 0,0
23.10.2020 15:00:00 15,0 11,2 - 16 9 - - SW 1007,3 36 0,0
23.10.2020 14:00:00 14,6 12,4 - 15 8 - - SW 1007,5 6 1,4
23.10.2020 13:00:00 15,8 11,5 - 21 11 - - SW 1007,2 0 0,0
23.10.2020 12:00:00 15,9 11,9 - 18 10 - - SW 1007,5 12 0,0
23.10.2020 11:00:00 15,3 11,7 - 18 10 - - SW 1008,0 24 0,0
23.10.2020 10:00:00 15,2 12,0 - 13 7 - - SW 1008,2 54 0,0
23.10.2020 09:00:00 14,0 12,5 11,7 9 5 - - SSW 1008,5 60 0,0
23.10.2020 08:00:00 12,4 12,3 - 11 6 - - SSW 1008,6 30 0,0
23.10.2020 07:00:00 11,1 11,1 - 9 5 - - S 1008,6 0 0,0
23.10.2020 06:00:00 11,5 11,5 - 9 5 - - SSW 1008,5 0 0,0
23.10.2020 05:00:00 10,4 10,4 - 9 5 - - S 1008,7 0 0,0
23.10.2020 04:00:00 8,6 8,5 - 2 1 - - SE 1008,9 0 0,0
23.10.2020 03:00:00 7,6 7,5 - 4 2 - - W 1009,6 0 0,0
23.10.2020 02:00:00 6,1 5,9 - 4 2 - - WNW 1010,4 0 0,0
23.10.2020 01:00:00 6,1 5,9 - 0 0 - - N 1010,7 0 0,0
23.10.2020 00:00:00 7,5 7,3 - 4 2 - - SSW 1011,0 - 0,0
22.10.2020 23:00:00 8,3 7,9 - 4 2 - - SSW 1011,1 0 0,0
22.10.2020 22:00:00 9,4 9,2 - 8 4 - - S 1011,1 0 0,0
22.10.2020 21:00:00 9,0 8,5 - 5 3 - - SSW 1011,2 0 0,0
22.10.2020 20:00:00 10,8 9,7 - 8 4 - - SSW 1011,1 0 0,0
22.10.2020 19:00:00 11,4 10,1 - 9 5 - - SSW 1010,8 0 0,0
22.10.2020 18:00:00 12,1 9,8 - 9 5 - - SSW 1010,5 0 0,0
22.10.2020 17:00:00 13,6 9,4 - 11 6 - - SSW 1009,8 18 0,0
22.10.2020 16:00:00 15,5 9,2 - 15 8 - - SW 1009,4 54 0,0
22.10.2020 15:00:00 15,6 9,2 - 13 7 - - SW 1009,1 24 0,0
22.10.2020 14:00:00 16,3 9,4 - 22 12 - - WSW 1008,8 48 0,0
22.10.2020 13:00:00 15,7 10,5 - 15 8 - - W 1008,8 6 0,0
22.10.2020 12:00:00 16,6 10,3 - 16 9 - - WSW 1008,8 54 0,0
22.10.2020 11:00:00 16,4 10,6 - 15 8 - - WSW 1009,2 24 0,2
22.10.2020 10:00:00 15,8 11,6 - 11 6 - - SW 1008,8 6 0,0
22.10.2020 09:00:00 14,3 11,7 12,5 15 8 - - SW 1008,6 6 0,0
22.10.2020 08:00:00 12,8 11,0 - 11 6 - - WSW 1008,2 24 0,0
22.10.2020 07:00:00 11,9 10,4 - 9 5 - - SW 1007,5 0 0,0
22.10.2020 06:00:00 12,1 10,3 - 13 7 - - SW 1007,0 0 0,0
22.10.2020 05:00:00 12,3 10,1 - 15 8 - - SW 1006,9 0 0,0
22.10.2020 04:00:00 12,9 10,5 - 21 11 - - SW 1006,3 0 0,0
22.10.2020 03:00:00 13,0 10,5 - 21 11 - - SW 1005,8 0 0,0
22.10.2020 02:00:00 13,2 10,5 - 21 11 - - SW 1005,8 0 0,0
22.10.2020 01:00:00 12,5 10,7 - 13 7 - - SSW 1005,8 0 0,0
22.10.2020 00:00:00 12,5 10,3 - 15 8 - - SSW 1005,4 - 0,0
21.10.2020 23:00:00 13,0 10,4 - 13 7 - - SW 1004,9 0 0,0
21.10.2020 22:00:00 14,2 11,7 - 24 13 - - SW 1004,3 0 0,0
21.10.2020 21:00:00 14,4 12,5 - 13 7 - - SSW 1003,6 0 0,0
21.10.2020 20:00:00 14,0 12,4 - 13 7 - - SSW 1002,9 0 0,0
21.10.2020 19:00:00 14,1 12,3 - 11 6 - - SSW 1002,5 0 0,0
21.10.2020 18:00:00 14,4 12,7 - 9 5 - - SW 1001,4 0 0,0
21.10.2020 17:00:00 14,5 12,6 - 13 7 - - WSW 1000,0 0 0,0

tt = Température de l'air
td = dewpoint
tt -20cm = Température de l'air -20cm
ff = Vitesse du vent
fx = gusts
dd = Direction du vent
ppp = reduced air pressure
sd = Ensoleillement
rr = Quantités de précipitations

stations d'obs. à proximité